EDDS/STR METAR and TAF weather

Enter ICAO airport designator
Station Type Date Time Source
EDDS METAR 2022/12/08 13:50 UTC NOAA

EDDS 081350Z AUTO 17004KT 130V220 9999 FEW023 BKN035 BKN041 04/M03 Q1007 NOSIG


Station Type Date Time Source
EDDS Decoded METAR 2022/12/08 13:50 UTC NOAA

Stuttgart-Echterdingen, Germany (EDDS) 48-41N 009-13E 391M
Dec 08, 2022 - 08:50 AM EST / 2022.12.08 1350 UTC
Wind: from the S (170 degrees) at 5 MPH (4 KT) (direction variable):0
Visibility: greater than 7 mile(s):0
Sky conditions: mostly cloudy
Temperature: 39 F (4 C)
Dew Point: 26 F (-3 C)
Relative Humidity: 60%
Pressure (altimeter): 29.74 in. Hg (1007 hPa)
ob: EDDS 081350Z AUTO 17004KT 130V220 9999 FEW023 BKN035 BKN041 04/M03 Q1007 NOSIG
cycle: 14

Station Type Date Time Source
EDDS TAF 2022/12/08 12:27 UTC NOAA

TAF EDDS 081100Z 0812/0912 VRB03KT CAVOK
TEMPO 0823/0908 0500 FZFG BKN001 PROB40
TEMPO 0908/0912 4000 -SN BKN012

Example: see airport list